sensor_id;sensor_type;location;lat;lon;timestamp;temperature;humidity
57652;DHT22;43480;53.116;6.734;2022-09-09T00:09:33;14.20;99.90
57652;DHT22;43480;53.116;6.734;2022-09-09T00:12:22;14.30;99.90
57652;DHT22;43480;53.116;6.734;2022-09-09T00:17:22;14.30;99.90
57652;DHT22;43480;53.116;6.734;2022-09-09T00:19:56;14.30;99.90
57652;DHT22;43480;53.116;6.734;2022-09-09T00:22:25;14.30;99.90
57652;DHT22;43480;53.116;6.734;2022-09-09T00:24:53;14.30;99.90
57652;DHT22;43480;53.116;6.734;2022-09-09T00:27:21;14.20;99.90
57652;DHT22;43480;53.116;6.734;2022-09-09T00:29:56;14.20;99.90
57652;DHT22;43480;53.116;6.734;2022-09-09T00:32:24;14.20;99.90
57652;DHT22;43480;53.116;6.734;2022-09-09T00:34:54;14.20;99.90
57652;DHT22;43480;53.116;6.734;2022-09-09T00:37:21;14.20;99.90
57652;DHT22;43480;53.116;6.734;2022-09-09T00:39:47;14.20;99.90
57652;DHT22;43480;53.116;6.734;2022-09-09T00:42:25;14.10;99.90
57652;DHT22;43480;53.116;6.734;2022-09-09T00:47:50;14.10;99.90
57652;DHT22;43480;53.116;6.734;2022-09-09T00:55:19;14.00;99.90
57652;DHT22;43480;53.116;6.734;2022-09-09T00:57:46;14.00;99.90
57652;DHT22;43480;53.116;6.734;2022-09-09T01:00:24;14.00;99.90
57652;DHT22;43480;53.116;6.734;2022-09-09T01:07:52;13.90;99.90
57652;DHT22;43480;53.116;6.734;2022-09-09T01:10:26;13.90;99.90
57652;DHT22;43480;53.116;6.734;2022-09-09T01:12:54;13.90;99.90
57652;DHT22;43480;53.116;6.734;2022-09-09T01:15:27;13.90;99.90
57652;DHT22;43480;53.116;6.734;2022-09-09T01:20:23;13.90;99.90
57652;DHT22;43480;53.116;6.734;2022-09-09T01:28:16;13.90;99.90
57652;DHT22;43480;53.116;6.734;2022-09-09T01:30:42;13.80;99.90
57652;DHT22;43480;53.116;6.734;2022-09-09T01:33:09;13.80;99.90
57652;DHT22;43480;53.116;6.734;2022-09-09T01:35:42;13.80;99.90
57652;DHT22;43480;53.116;6.734;2022-09-09T01:38:08;13.70;99.90
57652;DHT22;43480;53.116;6.734;2022-09-09T01:40:34;13.70;99.90
57652;DHT22;43480;53.116;6.734;2022-09-09T01:42:59;13.70;99.90
57652;DHT22;43480;53.116;6.734;2022-09-09T01:45:25;13.70;99.90
57652;DHT22;43480;53.116;6.734;2022-09-09T01:47:51;13.60;99.90
57652;DHT22;43480;53.116;6.734;2022-09-09T01:50:17;13.60;99.90
57652;DHT22;43480;53.116;6.734;2022-09-09T01:52:47;13.60;99.90
57652;DHT22;43480;53.116;6.734;2022-09-09T01:55:14;13.60;99.90
57652;DHT22;43480;53.116;6.734;2022-09-09T01:57:43;13.60;99.90
57652;DHT22;43480;53.116;6.734;2022-09-09T02:00:10;13.60;99.90
57652;DHT22;43480;53.116;6.734;2022-09-09T02:05:07;13.60;99.90
57652;DHT22;43480;53.116;6.734;2022-09-09T02:07:39;13.60;99.90
57652;DHT22;43480;53.116;6.734;2022-09-09T02:10:09;13.60;99.90
57652;DHT22;43480;53.116;6.734;2022-09-09T02:12:38;13.60;99.90
57652;DHT22;43480;53.116;6.734;2022-09-09T02:15:07;13.70;99.90
57652;DHT22;43480;53.116;6.734;2022-09-09T02:17:36;13.70;99.90
57652;DHT22;43480;53.116;6.734;2022-09-09T02:20:07;13.80;99.90
57652;DHT22;43480;53.116;6.734;2022-09-09T02:22:34;13.80;99.90
57652;DHT22;43480;53.116;6.734;2022-09-09T02:25:00;13.90;99.90
57652;DHT22;43480;53.116;6.734;2022-09-09T02:27:26;13.90;99.90
57652;DHT22;43480;53.116;6.734;2022-09-09T02:29:53;14.00;99.90
57652;DHT22;43480;53.116;6.734;2022-09-09T02:32:20;14.00;99.90
57652;DHT22;43480;53.116;6.734;2022-09-09T02:34:54;14.00;99.90
57652;DHT22;43480;53.116;6.734;2022-09-09T02:37:22;14.10;99.90
57652;DHT22;43480;53.116;6.734;2022-09-09T02:39:50;14.20;99.90
57652;DHT22;43480;53.116;6.734;2022-09-09T02:42:16;14.30;99.90
57652;DHT22;43480;53.116;6.734;2022-09-09T02:44:41;14.30;99.90
57652;DHT22;43480;53.116;6.734;2022-09-09T02:47:20;14.30;99.90
57652;DHT22;43480;53.116;6.734;2022-09-09T02:50:23;14.40;99.90
57652;DHT22;43480;53.116;6.734;2022-09-09T02:52:52;14.40;99.90
57652;DHT22;43480;53.116;6.734;2022-09-09T02:55:32;14.40;99.90
57652;DHT22;43480;53.116;6.734;2022-09-09T02:58:02;14.40;99.90
57652;DHT22;43480;53.116;6.734;2022-09-09T03:00:29;14.50;99.90
57652;DHT22;43480;53.116;6.734;2022-09-09T03:02:55;14.50;99.90
57652;DHT22;43480;53.116;6.734;2022-09-09T03:05:21;14.50;99.90
57652;DHT22;43480;53.116;6.734;2022-09-09T03:07:47;14.50;99.90
57652;DHT22;43480;53.116;6.734;2022-09-09T03:10:12;14.50;99.90
57652;DHT22;43480;53.116;6.734;2022-09-09T03:12:38;14.50;99.90
57652;DHT22;43480;53.116;6.734;2022-09-09T03:15:04;14.50;99.90
57652;DHT22;43480;53.116;6.734;2022-09-09T03:17:30;14.60;99.90
57652;DHT22;43480;53.116;6.734;2022-09-09T03:19:55;14.60;99.90
57652;DHT22;43480;53.116;6.734;2022-09-09T03:22:24;14.60;99.90
57652;DHT22;43480;53.116;6.734;2022-09-09T03:24:51;14.60;99.90
57652;DHT22;43480;53.116;6.734;2022-09-09T03:27:16;14.60;99.90
57652;DHT22;43480;53.116;6.734;2022-09-09T03:29:42;14.70;99.90
57652;DHT22;43480;53.116;6.734;2022-09-09T03:32:08;14.70;99.90
57652;DHT22;43480;53.116;6.734;2022-09-09T03:34:35;14.70;99.90
57652;DHT22;43480;53.116;6.734;2022-09-09T03:37:02;14.70;99.90
57652;DHT22;43480;53.116;6.734;2022-09-09T03:39:27;14.70;99.90
57652;DHT22;43480;53.116;6.734;2022-09-09T03:41:54;14.70;99.90
57652;DHT22;43480;53.116;6.734;2022-09-09T03:44:19;14.70;99.90
57652;DHT22;43480;53.116;6.734;2022-09-09T03:46:45;14.70;99.90
57652;DHT22;43480;53.116;6.734;2022-09-09T03:49:11;14.70;99.90
57652;DHT22;43480;53.116;6.734;2022-09-09T03:51:36;14.70;99.90
57652;DHT22;43480;53.116;6.734;2022-09-09T03:54:04;14.80;99.90
57652;DHT22;43480;53.116;6.734;2022-09-09T03:56:30;14.80;99.90
57652;DHT22;43480;53.116;6.734;2022-09-09T03:58:57;14.80;99.90
57652;DHT22;43480;53.116;6.734;2022-09-09T04:01:22;14.80;99.90
57652;DHT22;43480;53.116;6.734;2022-09-09T04:03:48;14.80;99.90
57652;DHT22;43480;53.116;6.734;2022-09-09T04:06:14;14.80;99.90
57652;DHT22;43480;53.116;6.734;2022-09-09T04:08:40;14.80;99.90
57652;DHT22;43480;53.116;6.734;2022-09-09T04:11:06;14.80;99.90
57652;DHT22;43480;53.116;6.734;2022-09-09T04:13:33;14.90;99.90
57652;DHT22;43480;53.116;6.734;2022-09-09T04:16:00;14.90;99.90
57652;DHT22;43480;53.116;6.734;2022-09-09T04:18:25;14.80;99.90
57652;DHT22;43480;53.116;6.734;2022-09-09T04:20:52;14.80;99.90
57652;DHT22;43480;53.116;6.734;2022-09-09T04:23:18;14.90;99.90
57652;DHT22;43480;53.116;6.734;2022-09-09T04:25:50;14.90;99.90
57652;DHT22;43480;53.116;6.734;2022-09-09T04:28:16;14.80;99.90
57652;DHT22;43480;53.116;6.734;2022-09-09T04:30:42;14.80;99.90
57652;DHT22;43480;53.116;6.734;2022-09-09T04:33:08;14.80;99.90
57652;DHT22;43480;53.116;6.734;2022-09-09T04:35:35;14.80;99.90
57652;DHT22;43480;53.116;6.734;2022-09-09T04:38:01;14.80;99.90
57652;DHT22;43480;53.116;6.734;2022-09-09T04:40:28;14.70;99.90
57652;DHT22;43480;53.116;6.734;2022-09-09T04:42:55;14.70;99.90
57652;DHT22;43480;53.116;6.734;2022-09-09T04:45:20;14.70;99.90
57652;DHT22;43480;53.116;6.734;2022-09-09T04:47:46;14.70;99.90
57652;DHT22;43480;53.116;6.734;2022-09-09T04:50:11;14.70;99.90
57652;DHT22;43480;53.116;6.734;2022-09-09T04:52:37;14.70;99.90
57652;DHT22;43480;53.116;6.734;2022-09-09T04:55:03;14.70;99.90
57652;DHT22;43480;53.116;6.734;2022-09-09T04:57:28;14.70;99.90
57652;DHT22;43480;53.116;6.734;2022-09-09T04:59:57;14.70;99.90
57652;DHT22;43480;53.116;6.734;2022-09-09T05:02:22;14.70;99.90
57652;DHT22;43480;53.116;6.734;2022-09-09T05:04:47;14.70;99.90
57652;DHT22;43480;53.116;6.734;2022-09-09T05:07:15;14.70;99.90
57652;DHT22;43480;53.116;6.734;2022-09-09T05:09:40;14.60;99.90
57652;DHT22;43480;53.116;6.734;2022-09-09T05:12:06;14.60;99.90
57652;DHT22;43480;53.116;6.734;2022-09-09T05:14:31;14.60;99.90
57652;DHT22;43480;53.116;6.734;2022-09-09T05:16:57;14.60;99.90
57652;DHT22;43480;53.116;6.734;2022-09-09T05:19:23;14.60;99.90
57652;DHT22;43480;53.116;6.734;2022-09-09T05:21:48;14.60;99.90
57652;DHT22;43480;53.116;6.734;2022-09-09T05:24:15;14.60;99.90
57652;DHT22;43480;53.116;6.734;2022-09-09T05:26:42;14.60;99.90
57652;DHT22;43480;53.116;6.734;2022-09-09T05:29:08;14.60;99.90
57652;DHT22;43480;53.116;6.734;2022-09-09T05:31:33;14.60;99.90
57652;DHT22;43480;53.116;6.734;2022-09-09T05:33:59;14.60;99.90
57652;DHT22;43480;53.116;6.734;2022-09-09T05:36:24;14.60;99.90
57652;DHT22;43480;53.116;6.734;2022-09-09T05:38:50;14.60;99.90
57652;DHT22;43480;53.116;6.734;2022-09-09T05:41:16;14.60;99.90
57652;DHT22;43480;53.116;6.734;2022-09-09T05:43:42;14.60;99.90
57652;DHT22;43480;53.116;6.734;2022-09-09T05:46:10;14.60;99.90
57652;DHT22;43480;53.116;6.734;2022-09-09T05:48:37;14.60;99.90
57652;DHT22;43480;53.116;6.734;2022-09-09T05:51:03;14.60;99.90
57652;DHT22;43480;53.116;6.734;2022-09-09T05:53:29;14.60;99.90
57652;DHT22;43480;53.116;6.734;2022-09-09T05:55:58;14.60;99.90
57652;DHT22;43480;53.116;6.734;2022-09-09T05:58:24;14.60;99.90
57652;DHT22;43480;53.116;6.734;2022-09-09T06:00:50;14.60;99.90
57652;DHT22;43480;53.116;6.734;2022-09-09T06:03:15;14.60;99.90
57652;DHT22;43480;53.116;6.734;2022-09-09T06:05:42;14.70;99.90
57652;DHT22;43480;53.116;6.734;2022-09-09T06:08:07;14.60;99.90
57652;DHT22;43480;53.116;6.734;2022-09-09T06:10:33;14.60;99.90
57652;DHT22;43480;53.116;6.734;2022-09-09T06:12:59;14.60;99.90
57652;DHT22;43480;53.116;6.734;2022-09-09T06:15:25;14.60;99.90
57652;DHT22;43480;53.116;6.734;2022-09-09T06:17:54;14.60;99.90
57652;DHT22;43480;53.116;6.734;2022-09-09T06:20:19;14.70;99.90
57652;DHT22;43480;53.116;6.734;2022-09-09T06:22:45;14.80;99.90
57652;DHT22;43480;53.116;6.734;2022-09-09T06:25:13;14.80;99.90
57652;DHT22;43480;53.116;6.734;2022-09-09T06:27:41;14.70;99.90
57652;DHT22;43480;53.116;6.734;2022-09-09T06:30:07;14.80;99.90
57652;DHT22;43480;53.116;6.734;2022-09-09T06:32:33;14.80;99.90
57652;DHT22;43480;53.116;6.734;2022-09-09T06:34:59;14.90;99.90
57652;DHT22;43480;53.116;6.734;2022-09-09T06:37:26;14.90;99.90
57652;DHT22;43480;53.116;6.734;2022-09-09T06:39:52;14.90;99.90
57652;DHT22;43480;53.116;6.734;2022-09-09T06:42:20;15.00;99.90
57652;DHT22;43480;53.116;6.734;2022-09-09T06:44:45;15.00;99.90
57652;DHT22;43480;53.116;6.734;2022-09-09T06:47:11;15.10;99.90
57652;DHT22;43480;53.116;6.734;2022-09-09T06:49:36;15.10;99.90
57652;DHT22;43480;53.116;6.734;2022-09-09T06:52:02;15.20;99.90
57652;DHT22;43480;53.116;6.734;2022-09-09T06:54:27;15.20;99.90
57652;DHT22;43480;53.116;6.734;2022-09-09T06:56:53;15.30;99.90
57652;DHT22;43480;53.116;6.734;2022-09-09T06:59:19;15.40;99.90
57652;DHT22;43480;53.116;6.734;2022-09-09T07:01:45;15.40;99.90
57652;DHT22;43480;53.116;6.734;2022-09-09T07:04:11;15.50;99.90
57652;DHT22;43480;53.116;6.734;2022-09-09T07:06:43;15.50;99.90
57652;DHT22;43480;53.116;6.734;2022-09-09T07:09:10;15.60;99.90
57652;DHT22;43480;53.116;6.734;2022-09-09T07:11:42;15.60;99.90
57652;DHT22;43480;53.116;6.734;2022-09-09T07:14:08;15.70;99.90
57652;DHT22;43480;53.116;6.734;2022-09-09T07:16:34;15.80;99.90
57652;DHT22;43480;53.116;6.734;2022-09-09T07:19:02;15.80;99.90
57652;DHT22;43480;53.116;6.734;2022-09-09T07:21:29;15.90;99.90
57652;DHT22;43480;53.116;6.734;2022-09-09T07:23:55;16.00;99.90
57652;DHT22;43480;53.116;6.734;2022-09-09T07:26:22;16.00;99.90
57652;DHT22;43480;53.116;6.734;2022-09-09T07:28:49;16.10;99.90
57652;DHT22;43480;53.116;6.734;2022-09-09T07:31:15;16.20;99.90
57652;DHT22;43480;53.116;6.734;2022-09-09T07:33:42;16.30;99.90
57652;DHT22;43480;53.116;6.734;2022-09-09T07:36:09;16.30;99.90
57652;DHT22;43480;53.116;6.734;2022-09-09T07:38:41;16.40;99.90
57652;DHT22;43480;53.116;6.734;2022-09-09T07:41:09;16.50;99.90
57652;DHT22;43480;53.116;6.734;2022-09-09T07:43:38;16.50;99.90
57652;DHT22;43480;53.116;6.734;2022-09-09T07:46:04;16.60;99.90
57652;DHT22;43480;53.116;6.734;2022-09-09T07:48:30;16.60;99.90
57652;DHT22;43480;53.116;6.734;2022-09-09T07:51:06;16.70;99.90
57652;DHT22;43480;53.116;6.734;2022-09-09T07:53:31;16.70;99.90
57652;DHT22;43480;53.116;6.734;2022-09-09T07:56:07;16.80;99.90
57652;DHT22;43480;53.116;6.734;2022-09-09T07:58:33;16.80;99.90
57652;DHT22;43480;53.116;6.734;2022-09-09T08:00:58;16.70;99.90
57652;DHT22;43480;53.116;6.734;2022-09-09T08:03:24;16.80;99.90
57652;DHT22;43480;53.116;6.734;2022-09-09T08:05:49;16.80;99.90
57652;DHT22;43480;53.116;6.734;2022-09-09T08:08:15;16.80;99.90
57652;DHT22;43480;53.116;6.734;2022-09-09T08:10:42;16.80;99.90
57652;DHT22;43480;53.116;6.734;2022-09-09T08:13:08;16.90;99.90
57652;DHT22;43480;53.116;6.734;2022-09-09T08:15:33;16.90;99.90
57652;DHT22;43480;53.116;6.734;2022-09-09T08:17:59;17.00;99.90
57652;DHT22;43480;53.116;6.734;2022-09-09T08:20:25;17.10;99.90
57652;DHT22;43480;53.116;6.734;2022-09-09T08:22:50;17.10;99.90
57652;DHT22;43480;53.116;6.734;2022-09-09T08:25:16;17.20;99.90
57652;DHT22;43480;53.116;6.734;2022-09-09T08:27:41;17.20;99.90
57652;DHT22;43480;53.116;6.734;2022-09-09T08:30:07;17.30;99.90
57652;DHT22;43480;53.116;6.734;2022-09-09T08:32:32;17.30;99.90
57652;DHT22;43480;53.116;6.734;2022-09-09T08:35:00;17.40;99.90
57652;DHT22;43480;53.116;6.734;2022-09-09T08:37:26;17.40;99.90
57652;DHT22;43480;53.116;6.734;2022-09-09T08:39:51;17.40;99.90
57652;DHT22;43480;53.116;6.734;2022-09-09T08:42:20;17.40;99.90
57652;DHT22;43480;53.116;6.734;2022-09-09T08:52:17;17.50;99.90
57652;DHT22;43480;53.116;6.734;2022-09-09T08:54:45;17.60;99.90
57652;DHT22;43480;53.116;6.734;2022-09-09T08:57:12;17.60;99.90
57652;DHT22;43480;53.116;6.734;2022-09-09T08:59:39;17.70;99.90
57652;DHT22;43480;53.116;6.734;2022-09-09T09:10:28;18.10;99.90
57652;DHT22;43480;53.116;6.734;2022-09-09T09:12:57;18.10;99.90
57652;DHT22;43480;53.116;6.734;2022-09-09T09:15:24;18.20;99.90
57652;DHT22;43480;53.116;6.734;2022-09-09T09:17:50;18.20;99.90
57652;DHT22;43480;53.116;6.734;2022-09-09T09:20:16;18.30;99.90
57652;DHT22;43480;53.116;6.734;2022-09-09T09:22:47;18.40;99.90
57652;DHT22;43480;53.116;6.734;2022-09-09T09:30:23;18.50;99.90
57652;DHT22;43480;53.116;6.734;2022-09-09T09:33:14;18.60;99.90
57652;DHT22;43480;53.116;6.734;2022-09-09T09:35:36;18.70;99.90
57652;DHT22;43480;53.116;6.734;2022-09-09T09:38:01;19.00;99.90
57652;DHT22;43480;53.116;6.734;2022-09-09T09:40:34;19.30;99.90
57652;DHT22;43480;53.116;6.734;2022-09-09T09:43:00;19.40;99.90
57652;DHT22;43480;53.116;6.734;2022-09-09T09:45:33;19.50;99.90
57652;DHT22;43480;53.116;6.734;2022-09-09T09:48:05;19.70;99.90
57652;DHT22;43480;53.116;6.734;2022-09-09T09:50:33;20.10;99.90
57652;DHT22;43480;53.116;6.734;2022-09-09T09:53:03;20.30;99.90
57652;DHT22;43480;53.116;6.734;2022-09-09T09:55:30;20.50;99.90
57652;DHT22;43480;53.116;6.734;2022-09-09T09:58:00;20.50;99.90
57652;DHT22;43480;53.116;6.734;2022-09-09T10:00:26;20.30;99.90
57652;DHT22;43480;53.116;6.734;2022-09-09T10:02:52;20.10;99.90
57652;DHT22;43480;53.116;6.734;2022-09-09T10:05:21;20.10;99.90
57652;DHT22;43480;53.116;6.734;2022-09-09T10:07:59;20.10;99.90
57652;DHT22;43480;53.116;6.734;2022-09-09T10:10:27;20.10;99.90
57652;DHT22;43480;53.116;6.734;2022-09-09T10:18:39;20.50;99.90
57652;DHT22;43480;53.116;6.734;2022-09-09T10:23:45;20.40;99.90
57652;DHT22;43480;53.116;6.734;2022-09-09T10:31:25;20.30;99.90
57652;DHT22;43480;53.116;6.734;2022-09-09T10:36:38;20.10;99.90
57652;DHT22;43480;53.116;6.734;2022-09-09T10:39:13;20.30;99.90
57652;DHT22;43480;53.116;6.734;2022-09-09T10:41:56;20.40;99.90
57652;DHT22;43480;53.116;6.734;2022-09-09T10:44:29;20.50;99.90
57652;DHT22;43480;53.116;6.734;2022-09-09T10:55:17;20.20;99.90
57652;DHT22;43480;53.116;6.734;2022-09-09T10:57:44;20.40;99.90
57652;DHT22;43480;53.116;6.734;2022-09-09T11:02:43;21.10;99.90
57652;DHT22;43480;53.116;6.734;2022-09-09T11:05:10;21.40;99.90
57652;DHT22;43480;53.116;6.734;2022-09-09T11:07:44;21.60;99.90
57652;DHT22;43480;53.116;6.734;2022-09-09T11:10:16;21.70;99.90
57652;DHT22;43480;53.116;6.734;2022-09-09T11:12:43;21.70;99.90
57652;DHT22;43480;53.116;6.734;2022-09-09T11:15:15;21.90;99.90
57652;DHT22;43480;53.116;6.734;2022-09-09T11:17:46;22.10;99.90
57652;DHT22;43480;53.116;6.734;2022-09-09T11:20:14;22.20;99.90
57652;DHT22;43480;53.116;6.734;2022-09-09T11:22:43;22.20;99.90
57652;DHT22;43480;53.116;6.734;2022-09-09T11:30:17;22.00;99.90
57652;DHT22;43480;53.116;6.734;2022-09-09T11:40:40;22.30;99.90
57652;DHT22;43480;53.116;6.734;2022-09-09T11:43:09;22.00;99.90
57652;DHT22;43480;53.116;6.734;2022-09-09T11:45:38;21.80;99.90
57652;DHT22;43480;53.116;6.734;2022-09-09T11:48:04;22.10;99.90
57652;DHT22;43480;53.116;6.734;2022-09-09T11:50:35;22.40;99.90
57652;DHT22;43480;53.116;6.734;2022-09-09T11:55:30;23.20;99.90
57652;DHT22;43480;53.116;6.734;2022-09-09T11:58:05;22.70;99.90
57652;DHT22;43480;53.116;6.734;2022-09-09T12:02:59;21.70;99.90
57652;DHT22;43480;53.116;6.734;2022-09-09T12:05:35;21.50;99.90
57652;DHT22;43480;53.116;6.734;2022-09-09T12:08:01;21.50;99.90
57652;DHT22;43480;53.116;6.734;2022-09-09T12:10:29;21.40;99.90
57652;DHT22;43480;53.116;6.734;2022-09-09T12:12:55;21.70;99.90
57652;DHT22;43480;53.116;6.734;2022-09-09T12:15:23;22.10;99.90
57652;DHT22;43480;53.116;6.734;2022-09-09T12:17:49;22.80;99.90
57652;DHT22;43480;53.116;6.734;2022-09-09T12:20:34;23.00;99.90
57652;DHT22;43480;53.116;6.734;2022-09-09T12:28:04;23.40;99.90
57652;DHT22;43480;53.116;6.734;2022-09-09T12:30:34;23.40;99.90
57652;DHT22;43480;53.116;6.734;2022-09-09T12:33:08;23.20;99.90
57652;DHT22;43480;53.116;6.734;2022-09-09T12:35:35;23.00;99.90
57652;DHT22;43480;53.116;6.734;2022-09-09T12:38:03;22.90;99.90
57652;DHT22;43480;53.116;6.734;2022-09-09T12:40:33;22.80;99.90
57652;DHT22;43480;53.116;6.734;2022-09-09T12:43:01;22.60;99.90
57652;DHT22;43480;53.116;6.734;2022-09-09T12:45:31;22.70;99.90
57652;DHT22;43480;53.116;6.734;2022-09-09T12:48:03;23.00;99.90
57652;DHT22;43480;53.116;6.734;2022-09-09T12:50:31;23.10;99.90
57652;DHT22;43480;53.116;6.734;2022-09-09T12:52:58;23.00;99.90
57652;DHT22;43480;53.116;6.734;2022-09-09T12:55:27;22.90;99.90
57652;DHT22;43480;53.116;6.734;2022-09-09T12:57:53;23.20;99.90
57652;DHT22;43480;53.116;6.734;2022-09-09T13:00:20;23.70;99.90
57652;DHT22;43480;53.116;6.734;2022-09-09T13:02:57;23.80;99.90
57652;DHT22;43480;53.116;6.734;2022-09-09T13:07:49;23.80;99.90
57652;DHT22;43480;53.116;6.734;2022-09-09T13:10:20;24.10;99.90
57652;DHT22;43480;53.116;6.734;2022-09-09T13:12:46;24.20;99.90
57652;DHT22;43480;53.116;6.734;2022-09-09T13:15:15;24.60;99.90
57652;DHT22;43480;53.116;6.734;2022-09-09T13:17:42;24.90;97.80
57652;DHT22;43480;53.116;6.734;2022-09-09T13:20:15;24.90;97.80
57652;DHT22;43480;53.116;6.734;2022-09-09T13:22:41;25.10;98.70
57652;DHT22;43480;53.116;6.734;2022-09-09T13:27:38;25.40;97.90
57652;DHT22;43480;53.116;6.734;2022-09-09T13:30:23;25.80;96.60
57652;DHT22;43480;53.116;6.734;2022-09-09T13:33:31;25.80;94.00
57652;DHT22;43480;53.116;6.734;2022-09-09T13:35:51;25.40;94.40
57652;DHT22;43480;53.116;6.734;2022-09-09T13:38:18;24.80;97.70
57652;DHT22;43480;53.116;6.734;2022-09-09T13:41:00;24.30;98.50
57652;DHT22;43480;53.116;6.734;2022-09-09T13:43:30;23.80;99.10
57652;DHT22;43480;53.116;6.734;2022-09-09T13:46:00;23.10;96.70
57652;DHT22;43480;53.116;6.734;2022-09-09T13:48:26;22.40;98.40
57652;DHT22;43480;53.116;6.734;2022-09-09T13:50:56;21.70;99.90
57652;DHT22;43480;53.116;6.734;2022-09-09T13:53:21;21.00;99.90
57652;DHT22;43480;53.116;6.734;2022-09-09T13:55:47;20.30;99.90
57652;DHT22;43480;53.116;6.734;2022-09-09T13:58:15;20.00;99.90
57652;DHT22;43480;53.116;6.734;2022-09-09T14:00:44;20.10;99.90
57652;DHT22;43480;53.116;6.734;2022-09-09T14:03:10;20.70;99.90
57652;DHT22;43480;53.116;6.734;2022-09-09T14:05:35;21.30;99.90
57652;DHT22;43480;53.116;6.734;2022-09-09T14:08:03;21.90;99.90
57652;DHT22;43480;53.116;6.734;2022-09-09T14:10:28;22.70;99.90
57652;DHT22;43480;53.116;6.734;2022-09-09T14:12:54;23.40;99.90
57652;DHT22;43480;53.116;6.734;2022-09-09T14:15:19;23.90;99.90
57652;DHT22;43480;53.116;6.734;2022-09-09T14:17:45;24.40;99.90
57652;DHT22;43480;53.116;6.734;2022-09-09T14:20:10;24.50;99.90
57652;DHT22;43480;53.116;6.734;2022-09-09T14:22:37;24.20;99.90
57652;DHT22;43480;53.116;6.734;2022-09-09T14:25:04;23.90;99.90
57652;DHT22;43480;53.116;6.734;2022-09-09T14:27:30;23.50;99.90
57652;DHT22;43480;53.116;6.734;2022-09-09T14:29:56;23.20;99.90
57652;DHT22;43480;53.116;6.734;2022-09-09T14:32:22;22.70;99.90
57652;DHT22;43480;53.116;6.734;2022-09-09T14:34:48;22.30;99.90
57652;DHT22;43480;53.116;6.734;2022-09-09T14:37:17;21.90;99.90
57652;DHT22;43480;53.116;6.734;2022-09-09T14:39:43;21.50;99.90
57652;DHT22;43480;53.116;6.734;2022-09-09T14:42:10;21.20;99.90
57652;DHT22;43480;53.116;6.734;2022-09-09T14:44:39;20.90;99.90
57652;DHT22;43480;53.116;6.734;2022-09-09T14:47:06;20.70;99.90
57652;DHT22;43480;53.116;6.734;2022-09-09T14:49:33;20.50;99.90
57652;DHT22;43480;53.116;6.734;2022-09-09T14:51:59;20.50;99.90
57652;DHT22;43480;53.116;6.734;2022-09-09T14:54:24;21.10;99.90
57652;DHT22;43480;53.116;6.734;2022-09-09T14:56:50;22.10;99.90
57652;DHT22;43480;53.116;6.734;2022-09-09T14:59:15;23.10;99.90
57652;DHT22;43480;53.116;6.734;2022-09-09T15:01:41;24.00;99.90
57652;DHT22;43480;53.116;6.734;2022-09-09T15:04:06;24.80;99.90
57652;DHT22;43480;53.116;6.734;2022-09-09T15:06:33;25.40;99.90
57652;DHT22;43480;53.116;6.734;2022-09-09T15:08:59;25.50;99.90
57652;DHT22;43480;53.116;6.734;2022-09-09T15:11:26;25.50;99.90
57652;DHT22;43480;53.116;6.734;2022-09-09T15:13:53;25.00;98.60
57652;DHT22;43480;53.116;6.734;2022-09-09T15:16:20;24.40;99.90
57652;DHT22;43480;53.116;6.734;2022-09-09T15:18:46;24.10;99.90
57652;DHT22;43480;53.116;6.734;2022-09-09T15:21:12;24.10;99.90
57652;DHT22;43480;53.116;6.734;2022-09-09T15:23:38;24.10;99.90
57652;DHT22;43480;53.116;6.734;2022-09-09T15:26:04;23.80;99.90
57652;DHT22;43480;53.116;6.734;2022-09-09T15:28:34;23.60;99.90
57652;DHT22;43480;53.116;6.734;2022-09-09T15:31:07;23.40;99.90
57652;DHT22;43480;53.116;6.734;2022-09-09T15:33:33;23.60;99.90
57652;DHT22;43480;53.116;6.734;2022-09-09T15:35:59;23.90;99.90
57652;DHT22;43480;53.116;6.734;2022-09-09T15:38:24;24.10;99.90
57652;DHT22;43480;53.116;6.734;2022-09-09T15:40:56;24.30;99.90
57652;DHT22;43480;53.116;6.734;2022-09-09T15:43:23;24.40;99.90
57652;DHT22;43480;53.116;6.734;2022-09-09T15:45:51;24.50;99.90
57652;DHT22;43480;53.116;6.734;2022-09-09T15:48:19;24.40;99.90
57652;DHT22;43480;53.116;6.734;2022-09-09T15:50:44;24.00;99.90
57652;DHT22;43480;53.116;6.734;2022-09-09T15:53:10;23.60;99.90
57652;DHT22;43480;53.116;6.734;2022-09-09T15:55:36;23.40;99.90
57652;DHT22;43480;53.116;6.734;2022-09-09T15:58:01;23.50;99.90
57652;DHT22;43480;53.116;6.734;2022-09-09T16:00:27;23.70;99.90
57652;DHT22;43480;53.116;6.734;2022-09-09T16:02:54;23.90;99.90
57652;DHT22;43480;53.116;6.734;2022-09-09T16:05:19;24.10;99.10
57652;DHT22;43480;53.116;6.734;2022-09-09T16:07:46;24.20;98.60
57652;DHT22;43480;53.116;6.734;2022-09-09T16:10:13;24.30;99.20
57652;DHT22;43480;53.116;6.734;2022-09-09T16:12:39;24.30;98.30
57652;DHT22;43480;53.116;6.734;2022-09-09T16:15:04;24.30;98.30
57652;DHT22;43480;53.116;6.734;2022-09-09T16:17:30;24.30;98.40
57652;DHT22;43480;53.116;6.734;2022-09-09T16:19:56;24.40;98.80
57652;DHT22;43480;53.116;6.734;2022-09-09T16:22:22;24.70;97.90
57652;DHT22;43480;53.116;6.734;2022-09-09T16:24:49;24.80;97.30
57652;DHT22;43480;53.116;6.734;2022-09-09T16:27:15;24.40;97.10
57652;DHT22;43480;53.116;6.734;2022-09-09T16:29:40;24.00;98.10
57652;DHT22;43480;53.116;6.734;2022-09-09T16:32:06;23.60;99.00
57652;DHT22;43480;53.116;6.734;2022-09-09T16:34:31;23.10;99.90
57652;DHT22;43480;53.116;6.734;2022-09-09T16:36:58;22.70;99.90
57652;DHT22;43480;53.116;6.734;2022-09-09T16:39:24;22.30;99.90
57652;DHT22;43480;53.116;6.734;2022-09-09T16:41:49;21.90;99.90
57652;DHT22;43480;53.116;6.734;2022-09-09T16:44:16;21.60;99.90
57652;DHT22;43480;53.116;6.734;2022-09-09T16:46:43;21.30;99.90
57652;DHT22;43480;53.116;6.734;2022-09-09T16:49:10;21.10;99.90
57652;DHT22;43480;53.116;6.734;2022-09-09T16:51:40;20.90;99.90
57652;DHT22;43480;53.116;6.734;2022-09-09T16:54:06;20.60;99.90
57652;DHT22;43480;53.116;6.734;2022-09-09T16:56:33;20.40;99.90
57652;DHT22;43480;53.116;6.734;2022-09-09T16:59:01;20.20;99.90
57652;DHT22;43480;53.116;6.734;2022-09-09T17:01:28;20.10;99.90
57652;DHT22;43480;53.116;6.734;2022-09-09T17:03:54;19.90;99.90
57652;DHT22;43480;53.116;6.734;2022-09-09T17:06:20;19.80;99.90
57652;DHT22;43480;53.116;6.734;2022-09-09T17:08:46;19.70;99.90
57652;DHT22;43480;53.116;6.734;2022-09-09T17:11:14;19.60;99.90
57652;DHT22;43480;53.116;6.734;2022-09-09T17:13:44;19.50;99.90
57652;DHT22;43480;53.116;6.734;2022-09-09T17:16:10;19.50;99.90
57652;DHT22;43480;53.116;6.734;2022-09-09T17:18:36;19.40;99.90
57652;DHT22;43480;53.116;6.734;2022-09-09T17:21:02;19.40;99.90
57652;DHT22;43480;53.116;6.734;2022-09-09T17:23:28;19.30;99.90